createdAt,value
2022-08-09T00:00:04.366Z,1.30
2022-08-09T00:02:37.443Z,1.50
2022-08-09T00:06:18.831Z,1.70
2022-08-09T00:08:01.426Z,1.80
2022-08-09T00:10:28.692Z,1.40
2022-08-09T00:12:55.536Z,1.50
2022-08-09T00:15:26.483Z,1.50
2022-08-09T00:18:12.106Z,1.20
2022-08-09T00:20:42.546Z,1.40
2022-08-09T00:23:56.056Z,1.50
2022-08-09T00:26:08.757Z,1.70
2022-08-09T00:28:39.676Z,1.40
2022-08-09T00:31:30.562Z,1.40
2022-08-09T00:33:56.335Z,1.50
2022-08-09T00:36:29.671Z,1.70
2022-08-09T00:38:58.803Z,1.60
2022-08-09T00:44:16.634Z,1.90
2022-08-09T00:44:26.247Z,1.30
2022-08-09T00:47:04.854Z,1.50
2022-08-09T00:49:36.755Z,1.80
2022-08-09T00:52:17.701Z,1.80
2022-08-09T00:54:46.251Z,1.60
2022-08-09T00:57:13.694Z,1.40
2022-08-09T00:59:52.504Z,1.50
2022-08-09T01:02:29.695Z,1.70
2022-08-09T01:05:22.481Z,1.50
2022-08-09T01:08:26.798Z,1.60
2022-08-09T01:11:34.390Z,1.70
2022-08-09T01:14:04.607Z,1.60
2022-08-09T01:16:47.460Z,1.60
2022-08-09T01:20:01.899Z,1.90
2022-08-09T01:22:54.807Z,1.80
2022-08-09T01:25:56.301Z,1.50
2022-08-09T01:28:26.088Z,1.80
2022-08-09T01:30:58.300Z,1.90
2022-08-09T01:33:32.846Z,1.70
2022-08-09T01:36:13.503Z,1.90
2022-08-09T01:38:46.587Z,1.80
2022-08-09T01:41:18.901Z,2.30
2022-08-09T01:43:57.333Z,2.20
2022-08-09T01:46:36.343Z,2.00
2022-08-09T01:49:10.207Z,1.80
2022-08-09T01:51:44.636Z,1.90
2022-08-09T01:54:28.012Z,2.50
2022-08-09T01:57:06.241Z,1.80
2022-08-09T01:59:50.853Z,1.90
2022-08-09T02:02:32.044Z,1.90
2022-08-09T02:05:15.095Z,1.70
2022-08-09T02:08:40.416Z,2.20
2022-08-09T02:10:51.764Z,1.50
2022-08-09T02:13:22.036Z,1.90
2022-08-09T02:15:56.515Z,1.70
2022-08-09T02:18:28.630Z,2.10
2022-08-09T02:21:02.596Z,2.10
2022-08-09T02:23:42.901Z,1.70
2022-08-09T02:26:26.951Z,2.30
2022-08-09T02:29:00.273Z,2.10
2022-08-09T02:31:39.365Z,2.00
2022-08-09T02:34:40.067Z,2.30
2022-08-09T02:37:15.161Z,2.00
2022-08-09T02:39:55.376Z,2.00
2022-08-09T02:42:39.479Z,2.00
2022-08-09T02:45:16.235Z,2.10
2022-08-09T02:47:57.210Z,2.20
2022-08-09T02:50:43.542Z,2.50
2022-08-09T02:53:28.174Z,2.30
2022-08-09T02:55:59.100Z,2.50
2022-08-09T02:58:37.637Z,2.70
2022-08-09T03:01:11.156Z,2.70
2022-08-09T03:04:18.272Z,2.20
2022-08-09T03:06:33.940Z,2.20
2022-08-09T03:09:06.272Z,2.20
2022-08-09T03:12:06.474Z,2.80
2022-08-09T03:14:26.676Z,1.90
2022-08-09T03:16:58.255Z,2.30
2022-08-09T03:19:52.795Z,2.60
2022-08-09T03:22:29.985Z,2.20
2022-08-09T03:25:06.343Z,2.10
2022-08-09T03:27:52.804Z,2.20
2022-08-09T03:30:29.597Z,2.90
2022-08-09T03:33:18.573Z,2.60
2022-08-09T03:36:12.258Z,2.30
2022-08-09T03:38:42.728Z,2.50
2022-08-09T03:41:16.546Z,2.60
2022-08-09T03:44:03.043Z,3.20
2022-08-09T03:46:35.347Z,2.70
2022-08-09T03:49:08.098Z,2.70
2022-08-09T03:51:56.819Z,3.20
2022-08-09T03:54:30.979Z,3.10
2022-08-09T03:57:18.052Z,2.90
2022-08-09T03:59:55.036Z,2.50
2022-08-09T04:02:28.485Z,2.90
2022-08-09T04:05:05.881Z,3.00
2022-08-09T04:07:52.357Z,3.30
2022-08-09T04:10:29.273Z,3.30
2022-08-09T04:13:04.452Z,3.20
2022-08-09T04:16:17.682Z,3.20
2022-08-09T04:18:21.252Z,2.90
2022-08-09T04:20:50.627Z,2.60
2022-08-09T04:23:24.608Z,3.30
2022-08-09T04:25:53.688Z,3.90
2022-08-09T04:28:34.146Z,3.10
2022-08-09T04:31:09.723Z,3.00
2022-08-09T04:33:47.557Z,3.30
2022-08-09T04:36:29.601Z,3.50
2022-08-09T04:39:01.341Z,3.50
2022-08-09T04:41:32.526Z,3.80
2022-08-09T04:44:11.045Z,3.40
2022-08-09T04:46:59.228Z,3.50
2022-08-09T04:49:53.049Z,3.80
2022-08-09T04:52:26.618Z,3.30
2022-08-09T04:54:56.401Z,3.70
2022-08-09T04:57:25.251Z,3.20
2022-08-09T04:59:56.403Z,3.10
2022-08-09T05:02:27.253Z,3.20
2022-08-09T05:04:55.275Z,3.40
2022-08-09T05:07:23.620Z,3.90
2022-08-09T05:09:51.318Z,3.50
2022-08-09T05:12:18.638Z,4.10
2022-08-09T05:14:49.400Z,3.80
2022-08-09T05:18:37.736Z,3.70
2022-08-09T05:20:05.452Z,3.70
2022-08-09T05:22:35.942Z,3.90
2022-08-09T05:25:20.845Z,3.90
2022-08-09T05:27:48.330Z,3.20
2022-08-09T05:30:17.559Z,3.20
2022-08-09T05:32:51.222Z,3.00
2022-08-09T05:35:21.846Z,3.40
2022-08-09T05:37:50.536Z,3.90
2022-08-09T05:40:18.597Z,3.20
2022-08-09T05:42:46.052Z,3.10
2022-08-09T05:45:14.247Z,3.50
2022-08-09T05:47:51.504Z,3.80
2022-08-09T05:50:36.200Z,3.40
2022-08-09T05:53:21.733Z,4.00
2022-08-09T05:55:58.867Z,6.40
2022-08-09T05:58:25.626Z,4.20
2022-08-09T06:00:53.774Z,4.20
2022-08-09T06:03:20.721Z,3.90
2022-08-09T06:05:58.239Z,3.80
2022-08-09T06:08:32.938Z,3.70
2022-08-09T06:11:00.902Z,3.80
2022-08-09T06:13:34.200Z,3.50
2022-08-09T06:16:04.899Z,3.30
2022-08-09T06:18:32.900Z,3.10
2022-08-09T06:21:01.727Z,3.40
2022-08-09T06:23:58.144Z,3.80
2022-08-09T06:26:22.695Z,3.30
2022-08-09T06:29:00.611Z,3.60
2022-08-09T06:31:39.996Z,3.30
2022-08-09T06:34:22.766Z,3.60
2022-08-09T06:36:59.586Z,4.00
2022-08-09T06:39:38.782Z,3.80
2022-08-09T06:42:16.304Z,3.00
2022-08-09T06:44:51.800Z,3.20
2022-08-09T06:47:22.267Z,3.70
2022-08-09T06:50:13.268Z,3.30
2022-08-09T06:52:47.095Z,3.30
2022-08-09T06:55:23.354Z,3.30
2022-08-09T06:58:02.755Z,3.10
2022-08-09T07:00:54.522Z,3.50
2022-08-09T07:03:27.701Z,3.00
2022-08-09T07:06:04.477Z,3.60
2022-08-09T07:08:37.367Z,3.60
2022-08-09T07:11:07.397Z,3.90
2022-08-09T07:13:45.444Z,2.90
2022-08-09T07:16:42.755Z,3.40
2022-08-09T07:19:15.713Z,3.30
2022-08-09T07:21:55.750Z,3.10
2022-08-09T07:24:32.233Z,3.50
2022-08-09T07:27:26.335Z,3.70
2022-08-09T07:29:57.187Z,3.50
2022-08-09T07:32:33.158Z,4.10
2022-08-09T07:35:11.619Z,3.20
2022-08-09T07:37:45.583Z,3.20
2022-08-09T07:40:20.591Z,4.10
2022-08-09T07:42:59.931Z,3.50
2022-08-09T07:45:39.328Z,3.50
2022-08-09T07:48:28.819Z,3.70
2022-08-09T07:51:09.015Z,3.70
2022-08-09T07:54:05.126Z,3.00
2022-08-09T07:56:33.759Z,3.10
2022-08-09T07:59:00.940Z,3.00
2022-08-09T08:01:30.499Z,2.90
2022-08-09T08:04:01.418Z,2.70
2022-08-09T08:06:32.244Z,3.10
2022-08-09T08:09:05.096Z,3.10
2022-08-09T08:12:24.966Z,3.30
2022-08-09T08:14:24.228Z,3.20
2022-08-09T08:17:00.961Z,2.70
2022-08-09T08:19:35.877Z,3.30
2022-08-09T08:22:04.602Z,3.10
2022-08-09T08:24:35.398Z,2.70
2022-08-09T08:27:16.765Z,2.20
2022-08-09T08:29:48.530Z,2.60
2022-08-09T08:32:18.958Z,1.90
2022-08-09T08:35:03.959Z,3.10
2022-08-09T08:37:41.631Z,3.20
2022-08-09T08:40:18.998Z,2.60
2022-08-09T08:42:47.263Z,3.10
2022-08-09T08:45:16.705Z,2.80
2022-08-09T08:47:45.982Z,2.90
2022-08-09T08:50:18.223Z,2.60
2022-08-09T08:52:58.547Z,2.80
2022-08-09T08:55:28.387Z,2.60
2022-08-09T08:57:59.882Z,2.60
2022-08-09T09:00:34.323Z,2.70
2022-08-09T09:03:11.880Z,2.90
2022-08-09T09:05:58.457Z,2.70
2022-08-09T09:08:40.195Z,2.50
2022-08-09T09:11:13.366Z,2.50
2022-08-09T09:13:57.083Z,2.60
2022-08-09T09:16:33.865Z,2.10
2022-08-09T09:22:03.685Z,2.40
2022-08-09T09:24:37.923Z,2.60
2022-08-09T09:27:08.554Z,2.80
2022-08-09T09:32:32.392Z,2.70
2022-08-09T09:35:12.977Z,2.40
2022-08-09T09:37:46.093Z,2.00
2022-08-09T09:40:13.189Z,2.80
2022-08-09T09:42:42.771Z,2.80
2022-08-09T09:45:14.531Z,3.60
2022-08-09T09:47:58.326Z,2.50
2022-08-09T09:50:50.750Z,2.50
2022-08-09T09:53:34.442Z,2.70
2022-08-09T09:56:30.866Z,2.20
2022-08-09T09:58:56.594Z,3.20
2022-08-09T10:01:30.993Z,2.50
2022-08-09T10:04:16.268Z,2.50
2022-08-09T10:06:52.049Z,2.40
2022-08-09T10:09:23.600Z,2.50
2022-08-09T10:12:14.230Z,2.60
2022-08-09T10:14:51.370Z,2.80
2022-08-09T10:17:55.180Z,2.40
2022-08-09T10:20:32.262Z,2.70
2022-08-09T10:23:22.218Z,2.00
2022-08-09T10:26:07.448Z,2.40
2022-08-09T10:28:40.586Z,2.40
2022-08-09T10:34:10.874Z,2.50
2022-08-09T10:36:49.893Z,2.60
2022-08-09T10:39:19.849Z,3.30
2022-08-09T10:41:48.324Z,2.70
2022-08-09T10:44:23.122Z,3.00
2022-08-09T10:48:12.459Z,2.60
2022-08-09T10:50:18.076Z,2.50
2022-08-09T10:53:18.271Z,4.30
2022-08-09T10:55:55.319Z,3.20
2022-08-09T10:58:32.451Z,2.70
2022-08-09T11:03:02.531Z,2.90
2022-08-09T11:04:19.832Z,2.60
2022-08-09T11:07:01.531Z,2.60
2022-08-09T11:09:37.998Z,2.80
2022-08-09T11:12:26.451Z,2.90
2022-08-09T11:15:01.770Z,2.90
2022-08-09T11:17:31.740Z,2.60
2022-08-09T11:20:10.216Z,2.90
2022-08-09T11:22:56.923Z,2.50
2022-08-09T11:25:44.742Z,2.70
2022-08-09T11:28:38.826Z,3.00
2022-08-09T11:31:49.602Z,3.00
2022-08-09T11:34:42.871Z,2.90
2022-08-09T11:37:24.080Z,2.70
2022-08-09T11:40:08.355Z,2.60
2022-08-09T11:42:50.574Z,2.70
2022-08-09T11:45:43.483Z,2.60
2022-08-09T11:48:26.112Z,2.60
2022-08-09T11:52:49.584Z,2.90
2022-08-09T11:54:00.706Z,2.70
2022-08-09T11:56:42.593Z,2.50
2022-08-09T11:59:33.013Z,2.80
2022-08-09T12:02:17.978Z,2.90
2022-08-09T12:04:58.226Z,2.70
2022-08-09T12:07:41.619Z,2.90
2022-08-09T12:10:31.724Z,2.60
2022-08-09T12:13:03.685Z,2.20
2022-08-09T12:15:49.695Z,2.60
2022-08-09T12:18:30.310Z,2.80
2022-08-09T12:21:03.516Z,3.10
2022-08-09T12:24:06.399Z,2.60
2022-08-09T12:29:14.152Z,2.30
2022-08-09T12:29:52.665Z,2.70
2022-08-09T12:32:27.703Z,2.70
2022-08-09T12:35:02.635Z,2.30
2022-08-09T12:37:49.802Z,2.70
2022-08-09T12:40:19.079Z,2.50
2022-08-09T12:42:50.533Z,2.60
2022-08-09T12:45:34.298Z,2.50
2022-08-09T12:48:27.911Z,2.60
2022-08-09T12:50:59.360Z,2.70
2022-08-09T12:53:40.771Z,2.40
2022-08-09T12:56:43.373Z,2.70
2022-08-09T12:59:16.921Z,2.50
2022-08-09T13:01:49.704Z,2.70
2022-08-09T13:04:37.249Z,3.20
2022-08-09T13:07:13.295Z,2.50
2022-08-09T13:09:52.752Z,3.20
2022-08-09T13:12:23.366Z,2.50
2022-08-09T13:14:54.137Z,2.70
2022-08-09T13:18:03.203Z,2.70
2022-08-09T13:20:16.395Z,2.80
2022-08-09T13:23:05.234Z,2.90
2022-08-09T13:25:54.388Z,2.80
2022-08-09T13:28:33.941Z,3.10
2022-08-09T13:32:14.142Z,3.20
2022-08-09T13:33:55.047Z,2.80
2022-08-09T13:36:38.129Z,3.10
2022-08-09T13:41:19.534Z,2.60
2022-08-09T13:42:12.422Z,2.30
2022-08-09T13:44:43.081Z,2.70
2022-08-09T13:47:25.513Z,3.50
2022-08-09T13:50:29.960Z,3.20
2022-08-09T13:52:57.677Z,2.90
2022-08-09T13:55:24.509Z,3.30
2022-08-09T13:57:58.542Z,3.20
2022-08-09T14:00:29.416Z,3.30
2022-08-09T14:03:04.411Z,3.90
2022-08-09T14:05:59.170Z,3.70
2022-08-09T14:08:31.616Z,4.10
2022-08-09T14:11:00.163Z,3.80
2022-08-09T14:14:24.561Z,4.60
2022-08-09T14:16:28.657Z,4.70
2022-08-09T14:18:58.151Z,5.20
2022-08-09T14:21:29.231Z,4.60
2022-08-09T14:24:05.430Z,5.20
2022-08-09T14:26:38.007Z,5.60
2022-08-09T14:29:25.864Z,6.40
2022-08-09T14:31:56.663Z,5.40
2022-08-09T14:34:31.373Z,7.00
2022-08-09T14:37:08.223Z,8.30
2022-08-09T14:39:46.869Z,8.90
2022-08-09T14:42:32.065Z,9.10
2022-08-09T14:46:40.307Z,10.10
2022-08-09T14:47:59.622Z,8.60
2022-08-09T14:50:34.494Z,9.60
2022-08-09T14:53:06.366Z,10.80
2022-08-09T14:55:41.970Z,11.30
2022-08-09T14:58:09.568Z,10.80
2022-08-09T15:00:37.109Z,10.70
2022-08-09T15:03:09.009Z,13.10
2022-08-09T15:05:39.013Z,11.90
2022-08-09T15:08:10.455Z,13.70
2022-08-09T15:10:38.694Z,14.80
2022-08-09T15:13:08.762Z,14.80
2022-08-09T15:15:39.438Z,16.00
2022-08-09T15:18:08.294Z,18.70
2022-08-09T15:21:55.664Z,19.00
2022-08-09T15:24:02.198Z,18.50
2022-08-09T15:26:19.047Z,17.60
2022-08-09T15:29:04.471Z,19.00
2022-08-09T15:31:41.570Z,18.40
2022-08-09T15:34:32.655Z,19.10
2022-08-09T15:36:58.587Z,20.70
2022-08-09T15:39:43.838Z,21.20
2022-08-09T15:42:13.112Z,21.10
2022-08-09T15:44:41.871Z,23.50
2022-08-09T15:47:13.905Z,20.70
2022-08-09T15:49:41.865Z,21.10
2022-08-09T15:52:28.110Z,24.40
2022-08-09T15:54:56.223Z,23.30
2022-08-09T15:57:35.487Z,23.30
2022-08-09T16:00:24.249Z,23.90
2022-08-09T16:02:56.120Z,24.80
2022-08-09T16:05:47.606Z,21.70
2022-08-09T16:08:30.733Z,26.90
2022-08-09T16:11:03.811Z,25.90
2022-08-09T16:14:02.654Z,25.60
2022-08-09T16:16:26.104Z,27.70
2022-08-09T16:18:55.288Z,25.10
2022-08-09T16:21:25.910Z,27.70
2022-08-09T16:23:58.573Z,25.40
2022-08-09T16:26:35.254Z,29.20
2022-08-09T16:29:11.084Z,25.90
2022-08-09T16:32:18.468Z,27.60
2022-08-09T16:34:56.121Z,26.50
2022-08-09T16:37:55.413Z,26.00
2022-08-09T16:40:12.496Z,26.10
2022-08-09T16:42:44.956Z,27.00
2022-08-09T16:45:13.877Z,26.70
2022-08-09T16:48:39.962Z,31.80
2022-08-09T16:50:33.945Z,27.30
2022-08-09T16:53:02.849Z,27.40
2022-08-09T16:56:00.060Z,28.90
2022-08-09T16:58:21.073Z,23.70
2022-08-09T17:00:49.540Z,27.90
2022-08-09T17:03:21.359Z,23.40
2022-08-09T17:06:09.408Z,24.60
2022-08-09T17:09:00.034Z,25.90
2022-08-09T17:11:40.013Z,24.50
2022-08-09T17:14:26.166Z,22.90
2022-08-09T17:17:02.378Z,24.40
2022-08-09T17:20:04.986Z,25.90
2022-08-09T17:22:28.869Z,24.70
2022-08-09T17:25:10.045Z,23.80
2022-08-09T17:27:49.413Z,20.90
2022-08-09T17:30:25.865Z,21.10
2022-08-09T17:32:54.292Z,21.10
2022-08-09T17:35:21.273Z,20.50
2022-08-09T17:38:12.864Z,23.00
2022-08-09T17:40:35.600Z,18.60
2022-08-09T17:43:33.019Z,19.40
2022-08-09T17:46:05.807Z,12.90
2022-08-09T17:48:38.925Z,12.10
2022-08-09T17:51:17.913Z,10.30
2022-08-09T17:53:52.953Z,7.50
2022-08-09T17:56:29.245Z,7.30
2022-08-09T17:59:09.326Z,5.50
2022-08-09T18:02:07.978Z,4.50
2022-08-09T18:04:27.851Z,5.10
2022-08-09T18:06:55.804Z,3.90
2022-08-09T18:09:40.957Z,3.60
2022-08-09T18:12:19.683Z,3.10
2022-08-09T18:14:54.236Z,3.00
2022-08-09T18:18:02.959Z,3.20
2022-08-09T18:20:55.558Z,3.10
2022-08-09T18:23:04.893Z,2.30
2022-08-09T18:25:52.719Z,2.10
2022-08-09T18:30:35.613Z,2.30
2022-08-09T18:31:14.625Z,2.00
2022-08-09T18:33:44.155Z,2.70
2022-08-09T18:36:31.983Z,2.00
2022-08-09T18:39:02.817Z,2.00
2022-08-09T18:41:35.075Z,1.80
2022-08-09T18:44:12.971Z,2.10
2022-08-09T18:46:50.149Z,1.60
2022-08-09T18:49:27.516Z,1.70
2022-08-09T18:51:59.308Z,1.50
2022-08-09T18:54:28.395Z,2.00
2022-08-09T18:57:05.939Z,1.40
2022-08-09T18:59:37.350Z,1.70
2022-08-09T19:02:15.632Z,1.80
2022-08-09T19:04:47.318Z,1.90
2022-08-09T19:07:16.289Z,1.20
2022-08-09T19:10:14.558Z,1.60
2022-08-09T19:12:31.937Z,1.50
2022-08-09T19:15:06.367Z,1.60
2022-08-09T19:17:47.637Z,1.50
2022-08-09T19:20:23.215Z,1.40
2022-08-09T19:22:54.563Z,1.70
2022-08-09T19:25:42.647Z,1.60
2022-08-09T19:28:13.418Z,1.30
2022-08-09T19:30:44.525Z,1.00
2022-08-09T19:33:19.178Z,1.20
2022-08-09T19:35:57.287Z,1.40
2022-08-09T19:38:26.246Z,1.10
2022-08-09T19:40:54.032Z,1.20
2022-08-09T19:44:00.275Z,1.10
2022-08-09T19:46:14.698Z,1.00
2022-08-09T19:49:01.005Z,1.00
2022-08-09T19:51:30.921Z,1.20
2022-08-09T19:54:01.930Z,1.10
2022-08-09T19:56:29.676Z,1.20
2022-08-09T19:59:39.599Z,1.60
2022-08-09T20:02:03.073Z,1.00
2022-08-09T20:04:40.458Z,1.10
2022-08-09T20:07:21.139Z,1.10
2022-08-09T20:09:49.392Z,1.00
2022-08-09T20:12:27.493Z,1.20
2022-08-09T20:14:58.824Z,1.00
2022-08-09T20:17:26.637Z,1.00
2022-08-09T20:19:57.954Z,1.20
2022-08-09T20:22:32.075Z,1.00
2022-08-09T20:25:02.674Z,1.20
2022-08-09T20:27:31.872Z,1.30
2022-08-09T20:30:00.068Z,1.50
2022-08-09T20:32:31.340Z,3.10
2022-08-09T20:35:12.302Z,1.40
2022-08-09T20:38:18.696Z,1.30
2022-08-09T20:40:30.193Z,1.10
2022-08-09T20:42:59.791Z,1.40
2022-08-09T20:45:59.756Z,1.20
2022-08-09T20:48:21.248Z,1.20
2022-08-09T20:50:54.287Z,1.20
2022-08-09T20:53:36.460Z,1.10
2022-08-09T20:56:20.085Z,0.90
2022-08-09T20:58:54.568Z,1.10
2022-08-09T21:01:35.011Z,1.10
2022-08-09T21:05:53.628Z,1.10
2022-08-09T21:07:11.751Z,1.00
2022-08-09T21:09:55.584Z,1.00
2022-08-09T21:15:13.746Z,1.00
2022-08-09T21:18:22.878Z,1.20
2022-08-09T21:20:30.650Z,1.10
2022-08-09T21:23:01.347Z,1.60
2022-08-09T21:25:55.523Z,1.00
2022-08-09T21:28:36.069Z,1.00
2022-08-09T21:31:16.563Z,1.10
2022-08-09T21:33:54.478Z,1.10
2022-08-09T21:36:28.146Z,1.20
2022-08-09T21:39:00.147Z,1.10
2022-08-09T21:42:05.686Z,1.00
2022-08-09T21:44:34.080Z,1.00
2022-08-09T21:47:10.586Z,1.20
2022-08-09T21:49:44.667Z,1.20
2022-08-09T21:52:17.902Z,1.10
2022-08-09T21:55:03.001Z,1.00
2022-08-09T21:57:39.417Z,0.90
2022-08-09T22:00:38.902Z,1.00
2022-08-09T22:03:19.771Z,0.90
2022-08-09T22:05:53.099Z,1.00
2022-08-09T22:08:25.598Z,1.00
2022-08-09T22:11:05.202Z,1.10
2022-08-09T22:13:43.187Z,0.90
2022-08-09T22:16:11.770Z,1.00
2022-08-09T22:18:52.295Z,1.00
2022-08-09T22:21:22.139Z,0.90
2022-08-09T22:23:59.451Z,1.00
2022-08-09T22:26:35.544Z,0.90
2022-08-09T22:29:09.279Z,1.00
2022-08-09T22:31:50.506Z,0.90
2022-08-09T22:34:28.761Z,1.00
2022-08-09T22:36:57.846Z,0.90
2022-08-09T22:39:57.229Z,0.90
2022-08-09T22:42:21.179Z,1.00
2022-08-09T22:45:11.577Z,0.80
2022-08-09T22:48:15.662Z,1.10
2022-08-09T22:50:31.333Z,1.00
2022-08-09T22:53:03.350Z,0.80
2022-08-09T22:56:06.037Z,0.90
2022-08-09T22:58:30.677Z,1.10
2022-08-09T23:01:05.456Z,1.00
2022-08-09T23:04:06.041Z,0.90
2022-08-09T23:06:35.024Z,0.90
2022-08-09T23:09:10.193Z,1.00
2022-08-09T23:11:36.926Z,1.20
2022-08-09T23:14:09.747Z,0.90
2022-08-09T23:16:37.368Z,1.20
2022-08-09T23:19:04.134Z,1.20
2022-08-09T23:21:34.746Z,1.00
2022-08-09T23:24:05.947Z,1.20
2022-08-09T23:26:39.258Z,1.20
2022-08-09T23:29:08.455Z,0.90
2022-08-09T23:31:35.363Z,6.90
2022-08-09T23:34:02.583Z,1.80
2022-08-09T23:36:31.675Z,1.30
2022-08-09T23:38:58.831Z,1.70
2022-08-09T23:41:28.628Z,1.30
2022-08-09T23:43:59.290Z,1.20
2022-08-09T23:46:28.306Z,1.30
2022-08-09T23:48:55.620Z,1.20
2022-08-09T23:51:22.662Z,1.10
2022-08-09T23:53:52.326Z,1.30
2022-08-09T23:56:51.919Z,1.10
2022-08-09T23:59:07.324Z,1.40
